sensor_id;sensor_type;location;lat;lon;timestamp;temperature;humidity
78490;DHT22;67776;52.012;4.736;2023-03-14T00:00:58;11.15;73.51
78490;DHT22;67776;52.012;4.736;2023-03-14T00:03:23;11.10;73.78
78490;DHT22;67776;52.012;4.736;2023-03-14T00:05:49;11.01;74.04
78490;DHT22;67776;52.012;4.736;2023-03-14T00:08:14;10.88;75.08
78490;DHT22;67776;52.012;4.736;2023-03-14T00:10:40;10.91;74.63
78490;DHT22;67776;52.012;4.736;2023-03-14T00:13:06;10.90;74.94
78490;DHT22;67776;52.012;4.736;2023-03-14T00:15:34;10.80;75.56
78490;DHT22;67776;52.012;4.736;2023-03-14T00:18:00;10.80;75.51
78490;DHT22;67776;52.012;4.736;2023-03-14T00:20:25;10.88;74.66
78490;DHT22;67776;52.012;4.736;2023-03-14T00:22:51;10.87;74.43
78490;DHT22;67776;52.012;4.736;2023-03-14T00:25:17;10.88;74.40
78490;DHT22;67776;52.012;4.736;2023-03-14T00:27:42;10.81;74.71
78490;DHT22;67776;52.012;4.736;2023-03-14T00:30:08;10.74;75.38
78490;DHT22;67776;52.012;4.736;2023-03-14T00:32:33;10.73;75.72
78490;DHT22;67776;52.012;4.736;2023-03-14T00:34:59;10.59;77.16
78490;DHT22;67776;52.012;4.736;2023-03-14T00:37:26;10.57;76.73
78490;DHT22;67776;52.012;4.736;2023-03-14T00:39:51;10.57;76.98
78490;DHT22;67776;52.012;4.736;2023-03-14T00:42:17;10.55;77.38
78490;DHT22;67776;52.012;4.736;2023-03-14T00:44:42;10.55;77.67
78490;DHT22;67776;52.012;4.736;2023-03-14T00:47:07;10.45;78.80
78490;DHT22;67776;52.012;4.736;2023-03-14T00:49:33;10.38;79.22
78490;DHT22;67776;52.012;4.736;2023-03-14T00:51:58;10.32;79.48
78490;DHT22;67776;52.012;4.736;2023-03-14T00:54:23;10.35;79.26
78490;DHT22;67776;52.012;4.736;2023-03-14T00:56:49;10.39;79.13
78490;DHT22;67776;52.012;4.736;2023-03-14T00:59:15;10.36;79.13
78490;DHT22;67776;52.012;4.736;2023-03-14T01:01:41;10.36;79.17
78490;DHT22;67776;52.012;4.736;2023-03-14T01:04:07;10.43;79.04
78490;DHT22;67776;52.012;4.736;2023-03-14T01:06:32;10.38;79.09
78490;DHT22;67776;52.012;4.736;2023-03-14T01:08:59;10.39;79.27
78490;DHT22;67776;52.012;4.736;2023-03-14T01:11:29;10.33;79.69
78490;DHT22;67776;52.012;4.736;2023-03-14T01:13:55;10.33;79.51
78490;DHT22;67776;52.012;4.736;2023-03-14T01:16:22;10.23;80.33
78490;DHT22;67776;52.012;4.736;2023-03-14T01:18:48;10.21;80.50
78490;DHT22;67776;52.012;4.736;2023-03-14T01:21:21;10.09;81.16
78490;DHT22;67776;52.012;4.736;2023-03-14T01:23:47;10.12;80.83
78490;DHT22;67776;52.012;4.736;2023-03-14T01:26:15;10.11;81.08
78490;DHT22;67776;52.012;4.736;2023-03-14T01:28:41;10.02;81.66
78490;DHT22;67776;52.012;4.736;2023-03-14T01:31:09;10.12;80.70
78490;DHT22;67776;52.012;4.736;2023-03-14T01:33:35;10.15;80.80
78490;DHT22;67776;52.012;4.736;2023-03-14T01:36:00;10.13;81.06
78490;DHT22;67776;52.012;4.736;2023-03-14T01:38:28;10.09;81.27
78490;DHT22;67776;52.012;4.736;2023-03-14T01:40:53;10.11;80.64
78490;DHT22;67776;52.012;4.736;2023-03-14T01:43:19;10.08;80.69
78490;DHT22;67776;52.012;4.736;2023-03-14T01:48:25;10.06;81.01
78490;DHT22;67776;52.012;4.736;2023-03-14T01:50:52;10.08;81.14
78490;DHT22;67776;52.012;4.736;2023-03-14T01:53:17;10.06;80.92
78490;DHT22;67776;52.012;4.736;2023-03-14T01:55:47;10.13;80.23
78490;DHT22;67776;52.012;4.736;2023-03-14T01:58:13;10.15;80.20
78490;DHT22;67776;52.012;4.736;2023-03-14T02:00:41;10.19;80.08
78490;DHT22;67776;52.012;4.736;2023-03-14T02:03:11;10.21;80.05
78490;DHT22;67776;52.012;4.736;2023-03-14T02:05:39;10.19;80.07
78490;DHT22;67776;52.012;4.736;2023-03-14T02:08:08;10.21;79.99
78490;DHT22;67776;52.012;4.736;2023-03-14T02:10:41;10.15;80.23
78490;DHT22;67776;52.012;4.736;2023-03-14T02:13:08;10.06;80.72
78490;DHT22;67776;52.012;4.736;2023-03-14T02:15:34;10.02;80.88
78490;DHT22;67776;52.012;4.736;2023-03-14T02:18:01;9.97;81.20
78490;DHT22;67776;52.012;4.736;2023-03-14T02:22:52;9.98;80.87
78490;DHT22;67776;52.012;4.736;2023-03-14T02:27:43;9.91;81.38
78490;DHT22;67776;52.012;4.736;2023-03-14T02:30:17;9.90;81.33
78490;DHT22;67776;52.012;4.736;2023-03-14T02:32:47;9.80;81.58
78490;DHT22;67776;52.012;4.736;2023-03-14T02:35:17;9.81;81.70
78490;DHT22;67776;52.012;4.736;2023-03-14T02:38:00;9.81;81.78
78490;DHT22;67776;52.012;4.736;2023-03-14T02:40:28;9.78;82.39
78490;DHT22;67776;52.012;4.736;2023-03-14T02:42:54;9.77;82.64
78490;DHT22;67776;52.012;4.736;2023-03-14T02:47:57;9.74;82.93
78490;DHT22;67776;52.012;4.736;2023-03-14T02:50:26;9.71;83.05
78490;DHT22;67776;52.012;4.736;2023-03-14T02:52:52;9.71;82.98
78490;DHT22;67776;52.012;4.736;2023-03-14T02:55:22;9.80;82.72
78490;DHT22;67776;52.012;4.736;2023-03-14T02:57:47;9.76;83.27
78490;DHT22;67776;52.012;4.736;2023-03-14T03:00:13;9.69;84.00
78490;DHT22;67776;52.012;4.736;2023-03-14T03:02:38;9.57;84.37
78490;DHT22;67776;52.012;4.736;2023-03-14T03:05:04;9.57;84.29
78490;DHT22;67776;52.012;4.736;2023-03-14T03:07:29;9.54;84.08
78490;DHT22;67776;52.012;4.736;2023-03-14T03:09:55;9.57;83.82
78490;DHT22;67776;52.012;4.736;2023-03-14T03:12:20;9.60;83.63
78490;DHT22;67776;52.012;4.736;2023-03-14T03:14:45;9.57;83.87
78490;DHT22;67776;52.012;4.736;2023-03-14T03:17:11;9.66;83.34
78490;DHT22;67776;52.012;4.736;2023-03-14T03:19:36;9.70;83.29
78490;DHT22;67776;52.012;4.736;2023-03-14T03:22:01;9.73;82.66
78490;DHT22;67776;52.012;4.736;2023-03-14T03:24:27;9.77;82.98
78490;DHT22;67776;52.012;4.736;2023-03-14T03:26:52;9.77;82.67
78490;DHT22;67776;52.012;4.736;2023-03-14T03:29:18;9.84;82.14
78490;DHT22;67776;52.012;4.736;2023-03-14T03:31:43;9.88;81.89
78490;DHT22;67776;52.012;4.736;2023-03-14T03:34:11;9.88;81.97
78490;DHT22;67776;52.012;4.736;2023-03-14T03:36:36;9.87;81.99
78490;DHT22;67776;52.012;4.736;2023-03-14T03:39:02;9.84;82.44
78490;DHT22;67776;52.012;4.736;2023-03-14T03:41:27;9.90;82.08
78490;DHT22;67776;52.012;4.736;2023-03-14T03:43:53;9.84;82.36
78490;DHT22;67776;52.012;4.736;2023-03-14T03:46:19;9.84;82.21
78490;DHT22;67776;52.012;4.736;2023-03-14T03:48:44;9.84;82.41
78490;DHT22;67776;52.012;4.736;2023-03-14T03:51:14;9.83;82.13
78490;DHT22;67776;52.012;4.736;2023-03-14T03:53:40;9.83;82.13
78490;DHT22;67776;52.012;4.736;2023-03-14T03:56:06;9.84;82.18
78490;DHT22;67776;52.012;4.736;2023-03-14T03:58:31;9.87;82.14
78490;DHT22;67776;52.012;4.736;2023-03-14T04:00:56;9.88;81.78
78490;DHT22;67776;52.012;4.736;2023-03-14T04:03:22;9.93;81.71
78490;DHT22;67776;52.012;4.736;2023-03-14T04:06:00;9.90;81.97
78490;DHT22;67776;52.012;4.736;2023-03-14T04:08:27;9.90;81.94
78490;DHT22;67776;52.012;4.736;2023-03-14T04:10:57;9.94;81.81
78490;DHT22;67776;52.012;4.736;2023-03-14T04:13:23;9.91;81.90
78490;DHT22;67776;52.012;4.736;2023-03-14T04:15:48;9.87;82.69
78490;DHT22;67776;52.012;4.736;2023-03-14T04:18:13;9.88;82.08
78490;DHT22;67776;52.012;4.736;2023-03-14T04:20:39;9.91;82.08
78490;DHT22;67776;52.012;4.736;2023-03-14T04:23:04;9.88;82.34
78490;DHT22;67776;52.012;4.736;2023-03-14T04:25:29;9.88;82.55
78490;DHT22;67776;52.012;4.736;2023-03-14T04:27:54;9.84;84.27
78490;DHT22;67776;52.012;4.736;2023-03-14T04:30:20;9.76;84.54
78490;DHT22;67776;52.012;4.736;2023-03-14T04:32:45;9.67;84.99
78490;DHT22;67776;52.012;4.736;2023-03-14T04:35:10;9.57;86.52
78490;DHT22;67776;52.012;4.736;2023-03-14T04:37:36;9.57;86.57
78490;DHT22;67776;52.012;4.736;2023-03-14T04:40:01;9.39;88.17
78490;DHT22;67776;52.012;4.736;2023-03-14T04:42:29;9.30;88.70
78490;DHT22;67776;52.012;4.736;2023-03-14T04:44:54;9.26;88.85
78490;DHT22;67776;52.012;4.736;2023-03-14T04:47:19;9.22;89.35
78490;DHT22;67776;52.012;4.736;2023-03-14T04:49:45;9.18;89.61
78490;DHT22;67776;52.012;4.736;2023-03-14T04:52:10;9.18;89.52
78490;DHT22;67776;52.012;4.736;2023-03-14T04:54:35;9.15;90.02
78490;DHT22;67776;52.012;4.736;2023-03-14T04:57:01;9.14;89.86
78490;DHT22;67776;52.012;4.736;2023-03-14T04:59:26;9.11;90.24
78490;DHT22;67776;52.012;4.736;2023-03-14T05:01:51;9.11;90.59
78490;DHT22;67776;52.012;4.736;2023-03-14T05:04:17;9.08;90.45
78490;DHT22;67776;52.012;4.736;2023-03-14T05:06:42;9.04;91.23
78490;DHT22;67776;52.012;4.736;2023-03-14T05:09:07;9.07;90.50
78490;DHT22;67776;52.012;4.736;2023-03-14T05:11:33;9.05;90.94
78490;DHT22;67776;52.012;4.736;2023-03-14T05:13:58;9.00;91.59
78490;DHT22;67776;52.012;4.736;2023-03-14T05:16:23;9.02;91.22
78490;DHT22;67776;52.012;4.736;2023-03-14T05:18:49;9.00;91.88
78490;DHT22;67776;52.012;4.736;2023-03-14T05:21:15;8.98;91.81
78490;DHT22;67776;52.012;4.736;2023-03-14T05:23:40;8.98;91.71
78490;DHT22;67776;52.012;4.736;2023-03-14T05:26:05;9.00;91.55
78490;DHT22;67776;52.012;4.736;2023-03-14T05:28:31;8.98;91.74
78490;DHT22;67776;52.012;4.736;2023-03-14T05:30:56;9.00;91.52
78490;DHT22;67776;52.012;4.736;2023-03-14T05:33:21;8.94;92.14
78490;DHT22;67776;52.012;4.736;2023-03-14T05:35:47;9.00;91.92
78490;DHT22;67776;52.012;4.736;2023-03-14T05:38:12;9.00;91.51
78490;DHT22;67776;52.012;4.736;2023-03-14T05:40:37;8.94;92.10
78490;DHT22;67776;52.012;4.736;2023-03-14T05:43:03;8.97;91.82
78490;DHT22;67776;52.012;4.736;2023-03-14T05:45:28;9.00;91.95
78490;DHT22;67776;52.012;4.736;2023-03-14T05:47:53;9.00;91.82
78490;DHT22;67776;52.012;4.736;2023-03-14T05:50:19;8.85;90.42
78490;DHT22;67776;52.012;4.736;2023-03-14T05:52:44;8.71;90.87
78490;DHT22;67776;52.012;4.736;2023-03-14T05:55:09;8.53;88.93
78490;DHT22;67776;52.012;4.736;2023-03-14T05:57:35;8.43;90.19
78490;DHT22;67776;52.012;4.736;2023-03-14T06:00:00;8.29;89.86
78490;DHT22;67776;52.012;4.736;2023-03-14T06:02:25;8.13;90.07
78490;DHT22;67776;52.012;4.736;2023-03-14T06:04:53;8.01;90.75
78490;DHT22;67776;52.012;4.736;2023-03-14T06:07:19;7.94;90.55
78490;DHT22;67776;52.012;4.736;2023-03-14T06:09:44;7.88;90.71
78490;DHT22;67776;52.012;4.736;2023-03-14T06:12:09;7.88;91.13
78490;DHT22;67776;52.012;4.736;2023-03-14T06:14:35;7.83;90.75
78490;DHT22;67776;52.012;4.736;2023-03-14T06:17:00;7.81;91.42
78490;DHT22;67776;52.012;4.736;2023-03-14T06:19:26;7.83;90.90
78490;DHT22;67776;52.012;4.736;2023-03-14T06:21:51;7.80;91.17
78490;DHT22;67776;52.012;4.736;2023-03-14T06:24:17;7.71;91.47
78490;DHT22;67776;52.012;4.736;2023-03-14T06:26:43;7.70;91.76
78490;DHT22;67776;52.012;4.736;2023-03-14T06:29:08;7.70;91.52
78490;DHT22;67776;52.012;4.736;2023-03-14T06:31:34;7.67;91.80
78490;DHT22;67776;52.012;4.736;2023-03-14T06:34:00;7.66;91.59
78490;DHT22;67776;52.012;4.736;2023-03-14T06:36:25;7.70;91.58
78490;DHT22;67776;52.012;4.736;2023-03-14T06:38:51;7.66;91.28
78490;DHT22;67776;52.012;4.736;2023-03-14T06:41:16;7.67;91.14
78490;DHT22;67776;52.012;4.736;2023-03-14T06:43:42;7.59;90.99
78490;DHT22;67776;52.012;4.736;2023-03-14T06:46:07;7.59;90.78
78490;DHT22;67776;52.012;4.736;2023-03-14T06:48:32;7.50;90.19
78490;DHT22;67776;52.012;4.736;2023-03-14T06:50:58;7.50;90.29
78490;DHT22;67776;52.012;4.736;2023-03-14T06:53:23;7.42;90.49
78490;DHT22;67776;52.012;4.736;2023-03-14T06:55:49;7.42;90.68
78490;DHT22;67776;52.012;4.736;2023-03-14T06:58:14;7.42;90.25
78490;DHT22;67776;52.012;4.736;2023-03-14T07:00:39;7.45;90.97
78490;DHT22;67776;52.012;4.736;2023-03-14T07:03:05;7.45;90.30
78490;DHT22;67776;52.012;4.736;2023-03-14T07:05:30;7.42;90.68
78490;DHT22;67776;52.012;4.736;2023-03-14T07:07:56;7.40;90.56
78490;DHT22;67776;52.012;4.736;2023-03-14T07:10:21;7.38;90.06
78490;DHT22;67776;52.012;4.736;2023-03-14T07:12:47;7.36;90.21
78490;DHT22;67776;52.012;4.736;2023-03-14T07:15:12;7.38;90.49
78490;DHT22;67776;52.012;4.736;2023-03-14T07:17:37;7.35;90.90
78490;DHT22;67776;52.012;4.736;2023-03-14T07:20:03;7.30;90.56
78490;DHT22;67776;52.012;4.736;2023-03-14T07:22:32;7.33;90.29
78490;DHT22;67776;52.012;4.736;2023-03-14T07:24:57;7.35;91.11
78490;DHT22;67776;52.012;4.736;2023-03-14T07:27:23;7.39;90.73
78490;DHT22;67776;52.012;4.736;2023-03-14T07:29:48;7.42;91.49
78490;DHT22;67776;52.012;4.736;2023-03-14T07:32:13;7.46;91.20
78490;DHT22;67776;52.012;4.736;2023-03-14T07:34:41;7.49;90.10
78490;DHT22;67776;52.012;4.736;2023-03-14T07:37:06;7.46;90.56
78490;DHT22;67776;52.012;4.736;2023-03-14T07:39:31;7.49;90.12
78490;DHT22;67776;52.012;4.736;2023-03-14T07:41:57;7.47;89.53
78490;DHT22;67776;52.012;4.736;2023-03-14T07:44:22;7.53;90.13
78490;DHT22;67776;52.012;4.736;2023-03-14T07:46:48;7.47;89.48
78490;DHT22;67776;52.012;4.736;2023-03-14T07:49:13;7.43;89.58
78490;DHT22;67776;52.012;4.736;2023-03-14T07:51:38;7.42;90.41
78490;DHT22;67776;52.012;4.736;2023-03-14T07:54:04;7.35;91.34
78490;DHT22;67776;52.012;4.736;2023-03-14T07:56:29;7.29;91.75
78490;DHT22;67776;52.012;4.736;2023-03-14T07:58:54;7.18;90.78
78490;DHT22;67776;52.012;4.736;2023-03-14T08:01:20;7.00;90.82
78490;DHT22;67776;52.012;4.736;2023-03-14T08:03:45;6.97;91.06
78490;DHT22;67776;52.012;4.736;2023-03-14T08:06:10;6.85;90.72
78490;DHT22;67776;52.012;4.736;2023-03-14T08:08:36;6.83;90.91
78490;DHT22;67776;52.012;4.736;2023-03-14T08:11:05;6.81;90.50
78490;DHT22;67776;52.012;4.736;2023-03-14T08:13:31;6.64;89.16
78490;DHT22;67776;52.012;4.736;2023-03-14T08:15:56;6.66;89.84
78490;DHT22;67776;52.012;4.736;2023-03-14T08:18:22;6.67;89.07
78490;DHT22;67776;52.012;4.736;2023-03-14T08:20:47;6.70;90.34
78490;DHT22;67776;52.012;4.736;2023-03-14T08:23:12;6.70;89.29
78490;DHT22;67776;52.012;4.736;2023-03-14T08:25:38;6.72;89.54
78490;DHT22;67776;52.012;4.736;2023-03-14T08:28:03;6.64;88.14
78490;DHT22;67776;52.012;4.736;2023-03-14T08:30:29;6.54;87.84
78490;DHT22;67776;52.012;4.736;2023-03-14T08:32:56;6.52;87.05
78490;DHT22;67776;52.012;4.736;2023-03-14T08:35:22;6.70;87.79
78490;DHT22;67776;52.012;4.736;2023-03-14T08:37:47;6.77;85.76
78490;DHT22;67776;52.012;4.736;2023-03-14T08:40:13;6.79;86.79
78490;DHT22;67776;52.012;4.736;2023-03-14T08:42:39;6.79;86.12
78490;DHT22;67776;52.012;4.736;2023-03-14T08:45:06;6.76;86.28
78490;DHT22;67776;52.012;4.736;2023-03-14T08:47:32;6.73;87.49
78490;DHT22;67776;52.012;4.736;2023-03-14T08:49:58;6.70;84.81
78490;DHT22;67776;52.012;4.736;2023-03-14T08:52:23;6.73;85.72
78490;DHT22;67776;52.012;4.736;2023-03-14T08:54:48;6.76;85.72
78490;DHT22;67776;52.012;4.736;2023-03-14T08:57:14;6.85;85.54
78490;DHT22;67776;52.012;4.736;2023-03-14T08:59:39;6.97;85.61
78490;DHT22;67776;52.012;4.736;2023-03-14T09:02:04;7.00;84.16
78490;DHT22;67776;52.012;4.736;2023-03-14T09:04:31;7.05;84.62
78490;DHT22;67776;52.012;4.736;2023-03-14T09:06:57;7.08;83.16
78490;DHT22;67776;52.012;4.736;2023-03-14T09:09:23;6.97;82.88
78490;DHT22;67776;52.012;4.736;2023-03-14T09:11:50;6.90;81.50
78490;DHT22;67776;52.012;4.736;2023-03-14T09:14:15;6.98;83.61
78490;DHT22;67776;52.012;4.736;2023-03-14T09:16:40;7.18;83.56
78490;DHT22;67776;52.012;4.736;2023-03-14T09:19:06;7.35;81.90
78490;DHT22;67776;52.012;4.736;2023-03-14T09:21:31;7.38;79.73
78490;DHT22;67776;52.012;4.736;2023-03-14T09:23:56;7.36;80.95
78490;DHT22;67776;52.012;4.736;2023-03-14T09:26:22;7.26;79.64
78490;DHT22;67776;52.012;4.736;2023-03-14T09:28:47;7.23;79.82
78490;DHT22;67776;52.012;4.736;2023-03-14T09:31:14;7.16;79.96
78490;DHT22;67776;52.012;4.736;2023-03-14T09:33:39;7.09;80.51
78490;DHT22;67776;52.012;4.736;2023-03-14T09:36:06;7.04;81.16
78490;DHT22;67776;52.012;4.736;2023-03-14T09:38:32;7.05;82.44
78490;DHT22;67776;52.012;4.736;2023-03-14T09:40:59;7.01;81.79
78490;DHT22;67776;52.012;4.736;2023-03-14T09:43:29;6.91;80.77
78490;DHT22;67776;52.012;4.736;2023-03-14T09:45:56;6.81;81.71
78490;DHT22;67776;52.012;4.736;2023-03-14T09:48:27;6.52;84.64
78490;DHT22;67776;52.012;4.736;2023-03-14T09:50:56;6.17;83.72
78490;DHT22;67776;52.012;4.736;2023-03-14T09:53:27;6.00;86.48
78490;DHT22;67776;52.012;4.736;2023-03-14T09:55:54;5.81;86.73
78490;DHT22;67776;52.012;4.736;2023-03-14T09:58:23;5.75;87.30
78490;DHT22;67776;52.012;4.736;2023-03-14T10:00:50;5.74;84.99
78490;DHT22;67776;52.012;4.736;2023-03-14T10:03:24;5.87;85.78
78490;DHT22;67776;52.012;4.736;2023-03-14T10:05:50;6.08;85.76
78490;DHT22;67776;52.012;4.736;2023-03-14T10:08:15;6.42;84.87
78490;DHT22;67776;52.012;4.736;2023-03-14T10:10:41;6.58;83.19
78490;DHT22;67776;52.012;4.736;2023-03-14T10:13:23;6.84;82.10
78490;DHT22;67776;52.012;4.736;2023-03-14T10:16:00;6.98;82.94
78490;DHT22;67776;52.012;4.736;2023-03-14T10:18:29;6.94;83.61
78490;DHT22;67776;52.012;4.736;2023-03-14T10:21:28;6.91;84.62
78490;DHT22;67776;52.012;4.736;2023-03-14T10:23:54;6.70;83.40
78490;DHT22;67776;52.012;4.736;2023-03-14T10:26:24;6.69;81.40
78490;DHT22;67776;52.012;4.736;2023-03-14T10:28:53;6.73;83.88
78490;DHT22;67776;52.012;4.736;2023-03-14T10:31:24;6.72;83.38
78490;DHT22;67776;52.012;4.736;2023-03-14T10:34:12;6.57;81.96
78490;DHT22;67776;52.012;4.736;2023-03-14T10:36:40;6.46;83.14
78490;DHT22;67776;52.012;4.736;2023-03-14T10:42:24;6.79;79.07
78490;DHT22;67776;52.012;4.736;2023-03-14T10:44:55;6.88;80.33
78490;DHT22;67776;52.012;4.736;2023-03-14T10:47:23;6.91;76.74
78490;DHT22;67776;52.012;4.736;2023-03-14T10:49:49;7.00;77.10
78490;DHT22;67776;52.012;4.736;2023-03-14T10:52:25;7.01;76.84
78490;DHT22;67776;52.012;4.736;2023-03-14T10:55:01;7.18;77.97
78490;DHT22;67776;52.012;4.736;2023-03-14T10:57:27;7.33;80.03
78490;DHT22;67776;52.012;4.736;2023-03-14T10:59:54;7.43;77.76
78490;DHT22;67776;52.012;4.736;2023-03-14T11:07:42;8.26;67.96
78490;DHT22;67776;52.012;4.736;2023-03-14T11:10:19;9.12;70.78
78490;DHT22;67776;52.012;4.736;2023-03-14T11:12:58;9.71;65.42
78490;DHT22;67776;52.012;4.736;2023-03-14T11:20:37;8.63;68.06
78490;DHT22;67776;52.012;4.736;2023-03-14T11:23:32;9.19;65.51
78490;DHT22;67776;52.012;4.736;2023-03-14T11:29:12;9.78;60.06
78490;DHT22;67776;52.012;4.736;2023-03-14T11:31:44;10.49;62.18
78490;DHT22;67776;52.012;4.736;2023-03-14T11:34:19;10.68;59.37
78490;DHT22;67776;52.012;4.736;2023-03-14T11:37:03;11.03;55.06
78490;DHT22;67776;52.012;4.736;2023-03-14T11:39:38;11.16;59.18
78490;DHT22;67776;52.012;4.736;2023-03-14T11:42:04;11.29;57.04
78490;DHT22;67776;52.012;4.736;2023-03-14T11:44:37;11.55;53.21
78490;DHT22;67776;52.012;4.736;2023-03-14T11:47:08;12.04;52.65
78490;DHT22;67776;52.012;4.736;2023-03-14T11:49:40;11.66;51.49
78490;DHT22;67776;52.012;4.736;2023-03-14T11:52:14;11.53;48.76
78490;DHT22;67776;52.012;4.736;2023-03-14T11:54:53;11.95;49.08
78490;DHT22;67776;52.012;4.736;2023-03-14T11:57:21;11.94;48.46
78490;DHT22;67776;52.012;4.736;2023-03-14T12:06:13;12.52;50.98
78490;DHT22;67776;52.012;4.736;2023-03-14T12:08:49;12.60;49.17
78490;DHT22;67776;52.012;4.736;2023-03-14T12:11:19;12.40;47.16
78490;DHT22;67776;52.012;4.736;2023-03-14T12:13:51;11.93;48.07
78490;DHT22;67776;52.012;4.736;2023-03-14T12:18:49;11.88;47.92
78490;DHT22;67776;52.012;4.736;2023-03-14T12:21:15;13.26;46.94
78490;DHT22;67776;52.012;4.736;2023-03-14T12:28:39;12.02;48.22
78490;DHT22;67776;52.012;4.736;2023-03-14T12:42:10;12.98;43.13
78490;DHT22;67776;52.012;4.736;2023-03-14T12:44:49;14.21;43.34
78490;DHT22;67776;52.012;4.736;2023-03-14T12:49:43;14.03;39.54
78490;DHT22;67776;52.012;4.736;2023-03-14T12:52:15;12.86;43.15
78490;DHT22;67776;52.012;4.736;2023-03-14T12:54:59;12.53;43.29
78490;DHT22;67776;52.012;4.736;2023-03-14T12:57:45;13.34;44.59
78490;DHT22;67776;52.012;4.736;2023-03-14T13:00:18;14.20;38.85
78490;DHT22;67776;52.012;4.736;2023-03-14T13:02:46;13.94;38.29
78490;DHT22;67776;52.012;4.736;2023-03-14T13:05:21;14.01;36.50
78490;DHT22;67776;52.012;4.736;2023-03-14T13:10:26;14.17;35.46
78490;DHT22;67776;52.012;4.736;2023-03-14T13:13:22;14.18;35.17
78490;DHT22;67776;52.012;4.736;2023-03-14T13:15:48;14.46;35.26
78490;DHT22;67776;52.012;4.736;2023-03-14T13:18:40;14.58;33.92
78490;DHT22;67776;52.012;4.736;2023-03-14T13:21:20;14.55;34.57
78490;DHT22;67776;52.012;4.736;2023-03-14T13:24:04;14.58;35.73
78490;DHT22;67776;52.012;4.736;2023-03-14T13:26:35;15.35;35.95
78490;DHT22;67776;52.012;4.736;2023-03-14T13:29:15;14.93;33.78
78490;DHT22;67776;52.012;4.736;2023-03-14T13:31:45;14.48;35.22
78490;DHT22;67776;52.012;4.736;2023-03-14T13:34:11;12.25;40.44
78490;DHT22;67776;52.012;4.736;2023-03-14T13:36:37;11.62;39.50
78490;DHT22;67776;52.012;4.736;2023-03-14T13:39:02;10.93;43.20
78490;DHT22;67776;52.012;4.736;2023-03-14T13:41:31;11.52;43.31
78490;DHT22;67776;52.012;4.736;2023-03-14T13:44:07;11.81;40.78
78490;DHT22;67776;52.012;4.736;2023-03-14T13:46:36;11.21;39.39
78490;DHT22;67776;52.012;4.736;2023-03-14T13:49:04;11.01;41.27
78490;DHT22;67776;52.012;4.736;2023-03-14T13:51:31;10.52;41.00
78490;DHT22;67776;52.012;4.736;2023-03-14T13:54:00;10.25;43.88
78490;DHT22;67776;52.012;4.736;2023-03-14T13:56:28;10.46;44.82
78490;DHT22;67776;52.012;4.736;2023-03-14T13:58:54;9.95;43.68
78490;DHT22;67776;52.012;4.736;2023-03-14T14:01:25;9.73;44.98
78490;DHT22;67776;52.012;4.736;2023-03-14T14:03:52;10.05;45.80
78490;DHT22;67776;52.012;4.736;2023-03-14T14:06:54;9.93;45.15
78490;DHT22;67776;52.012;4.736;2023-03-14T14:09:23;9.81;44.49
78490;DHT22;67776;52.012;4.736;2023-03-14T14:14:22;9.53;44.99
78490;DHT22;67776;52.012;4.736;2023-03-14T14:16:51;9.35;46.02
78490;DHT22;67776;52.012;4.736;2023-03-14T14:19:18;9.15;44.51
78490;DHT22;67776;52.012;4.736;2023-03-14T14:21:44;8.95;45.42
78490;DHT22;67776;52.012;4.736;2023-03-14T14:24:14;9.07;46.94
78490;DHT22;67776;52.012;4.736;2023-03-14T14:26:46;9.11;46.26
78490;DHT22;67776;52.012;4.736;2023-03-14T14:29:29;9.32;45.89
78490;DHT22;67776;52.012;4.736;2023-03-14T14:32:12;9.10;46.70
78490;DHT22;67776;52.012;4.736;2023-03-14T14:34:44;8.83;47.11
78490;DHT22;67776;52.012;4.736;2023-03-14T14:37:27;8.89;49.04
78490;DHT22;67776;52.012;4.736;2023-03-14T14:39:56;8.84;51.88
78490;DHT22;67776;52.012;4.736;2023-03-14T14:42:26;8.98;50.82
78490;DHT22;67776;52.012;4.736;2023-03-14T14:44:52;9.10;49.93
78490;DHT22;67776;52.012;4.736;2023-03-14T14:47:20;8.91;48.68
78490;DHT22;67776;52.012;4.736;2023-03-14T14:49:48;9.01;45.79
78490;DHT22;67776;52.012;4.736;2023-03-14T14:52:22;9.19;46.34
78490;DHT22;67776;52.012;4.736;2023-03-14T14:57:24;8.94;44.83
78490;DHT22;67776;52.012;4.736;2023-03-14T14:59:51;8.85;45.00
78490;DHT22;67776;52.012;4.736;2023-03-14T15:02:31;8.97;44.12
78490;DHT22;67776;52.012;4.736;2023-03-14T15:04:57;8.88;45.17
78490;DHT22;67776;52.012;4.736;2023-03-14T15:07:22;8.87;46.08
78490;DHT22;67776;52.012;4.736;2023-03-14T15:09:48;8.77;46.07
78490;DHT22;67776;52.012;4.736;2023-03-14T15:12:13;8.78;48.18
78490;DHT22;67776;52.012;4.736;2023-03-14T15:14:39;8.81;46.18
78490;DHT22;67776;52.012;4.736;2023-03-14T15:17:05;9.10;48.16
78490;DHT22;67776;52.012;4.736;2023-03-14T15:19:33;9.11;48.47
78490;DHT22;67776;52.012;4.736;2023-03-14T15:21:59;9.35;47.41
78490;DHT22;67776;52.012;4.736;2023-03-14T15:24:24;8.87;45.90
78490;DHT22;67776;52.012;4.736;2023-03-14T15:26:50;8.76;46.33
78490;DHT22;67776;52.012;4.736;2023-03-14T15:29:16;8.68;47.94
78490;DHT22;67776;52.012;4.736;2023-03-14T15:31:41;8.57;48.82
78490;DHT22;67776;52.012;4.736;2023-03-14T15:34:09;8.81;47.92
78490;DHT22;67776;52.012;4.736;2023-03-14T15:36:35;8.63;47.23
78490;DHT22;67776;52.012;4.736;2023-03-14T15:39:02;8.57;48.19
78490;DHT22;67776;52.012;4.736;2023-03-14T15:41:28;8.61;50.30
78490;DHT22;67776;52.012;4.736;2023-03-14T15:43:54;9.02;48.91
78490;DHT22;67776;52.012;4.736;2023-03-14T15:46:20;8.92;47.93
78490;DHT22;67776;52.012;4.736;2023-03-14T15:48:50;9.08;48.97
78490;DHT22;67776;52.012;4.736;2023-03-14T15:51:16;8.97;46.36
78490;DHT22;67776;52.012;4.736;2023-03-14T15:53:42;8.89;44.53
78490;DHT22;67776;52.012;4.736;2023-03-14T15:56:19;8.92;44.64
78490;DHT22;67776;52.012;4.736;2023-03-14T15:58:45;9.40;45.42
78490;DHT22;67776;52.012;4.736;2023-03-14T16:01:14;9.60;44.16
78490;DHT22;67776;52.012;4.736;2023-03-14T16:03:41;9.28;46.17
78490;DHT22;67776;52.012;4.736;2023-03-14T16:06:06;8.76;47.16
78490;DHT22;67776;52.012;4.736;2023-03-14T16:08:32;8.77;48.04
78490;DHT22;67776;52.012;4.736;2023-03-14T16:10:58;8.66;48.65
78490;DHT22;67776;52.012;4.736;2023-03-14T16:13:24;8.32;48.68
78490;DHT22;67776;52.012;4.736;2023-03-14T16:16:01;8.21;50.52
78490;DHT22;67776;52.012;4.736;2023-03-14T16:18:31;8.18;49.59
78490;DHT22;67776;52.012;4.736;2023-03-14T16:20:59;7.91;50.26
78490;DHT22;67776;52.012;4.736;2023-03-14T16:23:25;7.77;50.10
78490;DHT22;67776;52.012;4.736;2023-03-14T16:25:52;7.67;51.37
78490;DHT22;67776;52.012;4.736;2023-03-14T16:28:17;7.74;52.32
78490;DHT22;67776;52.012;4.736;2023-03-14T16:30:43;7.94;51.07
78490;DHT22;67776;52.012;4.736;2023-03-14T16:33:08;8.02;51.24
78490;DHT22;67776;52.012;4.736;2023-03-14T16:35:40;8.45;50.21
78490;DHT22;67776;52.012;4.736;2023-03-14T16:38:06;8.63;49.58
78490;DHT22;67776;52.012;4.736;2023-03-14T16:40:32;8.52;49.93
78490;DHT22;67776;52.012;4.736;2023-03-14T16:42:57;8.22;49.16
78490;DHT22;67776;52.012;4.736;2023-03-14T16:45:23;7.97;50.51
78490;DHT22;67776;52.012;4.736;2023-03-14T16:47:48;7.87;51.39